<?xml version="1.0" encoding="UTF-8" standalone="no" ?>
<gpx xmlns="http://www.topografix.com/GPX/1/1" xmlns:xsi="http://www.w3.org/2001/XMLSchema-instance" xsi:schemaLocation="http://www.topografix.com/GPX/1/1 http://www.topografix.com/GPX/1/1/gpx.xsd" version="1.1" creator="VisuGPX - https://www.visugpx.com">
  <metadata>
    <name>Andelot Supt Chapois</name>
    <desc><![CDATA[Une ballade de 2h30 sur le premier plateau du Jura, à l\'orée de la Joux]]></desc>
  </metadata>
  <trk>
    <name><![CDATA[2011-02-15 14:31]]></name>
    <trkseg>
      <trkpt lat="46.84655" lon="5.93147">
        <ele>618</ele>
        <time>2011-02-15T13:36:48Z</time>
      </trkpt>
      <trkpt lat="46.84642" lon="5.93166">
        <ele>615</ele>
        <time>2011-02-15T13:37:04Z</time>
      </trkpt>
      <trkpt lat="46.84624" lon="5.93162">
        <ele>613</ele>
        <time>2011-02-15T13:37:21Z</time>
      </trkpt>
      <trkpt lat="46.84607" lon="5.93172">
        <ele>611</ele>
        <time>2011-02-15T13:37:35Z</time>
      </trkpt>
      <trkpt lat="46.846" lon="5.93197">
        <ele>609</ele>
        <time>2011-02-15T13:37:49Z</time>
      </trkpt>
      <trkpt lat="46.84591" lon="5.93221">
        <ele>607</ele>
        <time>2011-02-15T13:38:02Z</time>
      </trkpt>
      <trkpt lat="46.84585" lon="5.93247">
        <ele>605</ele>
        <time>2011-02-15T13:38:15Z</time>
      </trkpt>
      <trkpt lat="46.84583" lon="5.93274">
        <ele>604</ele>
        <time>2011-02-15T13:38:33Z</time>
      </trkpt>
      <trkpt lat="46.84576" lon="5.93302">
        <ele>603</ele>
        <time>2011-02-15T13:38:45Z</time>
      </trkpt>
      <trkpt lat="46.84572" lon="5.93329">
        <ele>601</ele>
        <time>2011-02-15T13:39:00Z</time>
      </trkpt>
      <trkpt lat="46.84564" lon="5.93355">
        <ele>600</ele>
        <time>2011-02-15T13:39:16Z</time>
      </trkpt>
      <trkpt lat="46.84557" lon="5.93379">
        <ele>600</ele>
        <time>2011-02-15T13:39:26Z</time>
      </trkpt>
      <trkpt lat="46.84549" lon="5.93403">
        <ele>601</ele>
        <time>2011-02-15T13:39:40Z</time>
      </trkpt>
      <trkpt lat="46.8454" lon="5.93426">
        <ele>603</ele>
        <time>2011-02-15T13:39:52Z</time>
      </trkpt>
      <trkpt lat="46.84535" lon="5.93452">
        <ele>603</ele>
        <time>2011-02-15T13:40:07Z</time>
      </trkpt>
      <trkpt lat="46.8453" lon="5.93477">
        <ele>601</ele>
        <time>2011-02-15T13:40:20Z</time>
      </trkpt>
      <trkpt lat="46.84523" lon="5.93503">
        <ele>600</ele>
        <time>2011-02-15T13:40:35Z</time>
      </trkpt>
      <trkpt lat="46.84516" lon="5.93528">
        <ele>600</ele>
        <time>2011-02-15T13:40:48Z</time>
      </trkpt>
      <trkpt lat="46.84508" lon="5.93551">
        <ele>602</ele>
        <time>2011-02-15T13:41:03Z</time>
      </trkpt>
      <trkpt lat="46.84504" lon="5.93578">
        <ele>604</ele>
        <time>2011-02-15T13:41:16Z</time>
      </trkpt>
      <trkpt lat="46.84497" lon="5.93605">
        <ele>607</ele>
        <time>2011-02-15T13:41:33Z</time>
      </trkpt>
      <trkpt lat="46.84494" lon="5.93631">
        <ele>607</ele>
        <time>2011-02-15T13:41:50Z</time>
      </trkpt>
      <trkpt lat="46.845" lon="5.93657">
        <ele>605</ele>
        <time>2011-02-15T13:42:06Z</time>
      </trkpt>
      <trkpt lat="46.845" lon="5.93684">
        <ele>601</ele>
        <time>2011-02-15T13:42:20Z</time>
      </trkpt>
      <trkpt lat="46.84502" lon="5.93714">
        <ele>598</ele>
        <time>2011-02-15T13:42:39Z</time>
      </trkpt>
      <trkpt lat="46.84508" lon="5.9374">
        <ele>596</ele>
        <time>2011-02-15T13:42:53Z</time>
      </trkpt>
      <trkpt lat="46.84494" lon="5.93756">
        <ele>598</ele>
        <time>2011-02-15T13:43:06Z</time>
      </trkpt>
      <trkpt lat="46.84475" lon="5.93764">
        <ele>602</ele>
        <time>2011-02-15T13:43:18Z</time>
      </trkpt>
      <trkpt lat="46.84456" lon="5.9377">
        <ele>608</ele>
        <time>2011-02-15T13:43:32Z</time>
      </trkpt>
      <trkpt lat="46.84441" lon="5.93785">
        <ele>612</ele>
        <time>2011-02-15T13:43:45Z</time>
      </trkpt>
      <trkpt lat="46.84423" lon="5.93791">
        <ele>615</ele>
        <time>2011-02-15T13:43:59Z</time>
      </trkpt>
      <trkpt lat="46.84407" lon="5.93807">
        <ele>617</ele>
        <time>2011-02-15T13:44:18Z</time>
      </trkpt>
      <trkpt lat="46.84388" lon="5.93818">
        <ele>619</ele>
        <time>2011-02-15T13:44:36Z</time>
      </trkpt>
      <trkpt lat="46.84371" lon="5.93828">
        <ele>620</ele>
        <time>2011-02-15T13:44:49Z</time>
      </trkpt>
      <trkpt lat="46.8435" lon="5.9383">
        <ele>621</ele>
        <time>2011-02-15T13:45:02Z</time>
      </trkpt>
      <trkpt lat="46.84333" lon="5.93821">
        <ele>619</ele>
        <time>2011-02-15T13:45:25Z</time>
      </trkpt>
      <trkpt lat="46.84313" lon="5.93827">
        <ele>617</ele>
        <time>2011-02-15T13:45:41Z</time>
      </trkpt>
      <trkpt lat="46.84304" lon="5.9385">
        <ele>616</ele>
        <time>2011-02-15T13:46:02Z</time>
      </trkpt>
      <trkpt lat="46.84309" lon="5.93877">
        <ele>618</ele>
        <time>2011-02-15T13:46:26Z</time>
      </trkpt>
      <trkpt lat="46.84307" lon="5.93904">
        <ele>621</ele>
        <time>2011-02-15T13:46:41Z</time>
      </trkpt>
      <trkpt lat="46.84303" lon="5.93931">
        <ele>624</ele>
        <time>2011-02-15T13:46:54Z</time>
      </trkpt>
      <trkpt lat="46.84295" lon="5.93956">
        <ele>629</ele>
        <time>2011-02-15T13:47:14Z</time>
      </trkpt>
      <trkpt lat="46.84295" lon="5.93983">
        <ele>632</ele>
        <time>2011-02-15T13:47:30Z</time>
      </trkpt>
      <trkpt lat="46.84294" lon="5.9401">
        <ele>633</ele>
        <time>2011-02-15T13:48:05Z</time>
      </trkpt>
      <trkpt lat="46.8429" lon="5.94036">
        <ele>635</ele>
        <time>2011-02-15T13:48:21Z</time>
      </trkpt>
      <trkpt lat="46.84285" lon="5.94065">
        <ele>640</ele>
        <time>2011-02-15T13:48:43Z</time>
      </trkpt>
      <trkpt lat="46.84288" lon="5.94093">
        <ele>645</ele>
        <time>2011-02-15T13:48:58Z</time>
      </trkpt>
      <trkpt lat="46.84291" lon="5.9412">
        <ele>647</ele>
        <time>2011-02-15T13:49:13Z</time>
      </trkpt>
      <trkpt lat="46.84294" lon="5.94147">
        <ele>644</ele>
        <time>2011-02-15T13:49:30Z</time>
      </trkpt>
      <trkpt lat="46.84296" lon="5.94174">
        <ele>642</ele>
        <time>2011-02-15T13:49:44Z</time>
      </trkpt>
      <trkpt lat="46.84294" lon="5.942">
        <ele>641</ele>
        <time>2011-02-15T13:49:58Z</time>
      </trkpt>
      <trkpt lat="46.84292" lon="5.94229">
        <ele>643</ele>
        <time>2011-02-15T13:50:14Z</time>
      </trkpt>
      <trkpt lat="46.84299" lon="5.94256">
        <ele>645</ele>
        <time>2011-02-15T13:50:44Z</time>
      </trkpt>
      <trkpt lat="46.84307" lon="5.94282">
        <ele>645</ele>
        <time>2011-02-15T13:50:56Z</time>
      </trkpt>
      <trkpt lat="46.84316" lon="5.94306">
        <ele>645</ele>
        <time>2011-02-15T13:51:06Z</time>
      </trkpt>
      <trkpt lat="46.84332" lon="5.94319">
        <ele>645</ele>
        <time>2011-02-15T13:51:22Z</time>
      </trkpt>
      <trkpt lat="46.84346" lon="5.94335">
        <ele>644</ele>
        <time>2011-02-15T13:51:46Z</time>
      </trkpt>
      <trkpt lat="46.84362" lon="5.94356">
        <ele>643</ele>
        <time>2011-02-15T13:51:54Z</time>
      </trkpt>
      <trkpt lat="46.84379" lon="5.94368">
        <ele>644</ele>
        <time>2011-02-15T13:51:59Z</time>
      </trkpt>
      <trkpt lat="46.84389" lon="5.94391">
        <ele>644</ele>
        <time>2011-02-15T13:52:33Z</time>
      </trkpt>
      <trkpt lat="46.84389" lon="5.94418">
        <ele>643</ele>
        <time>2011-02-15T13:52:47Z</time>
      </trkpt>
      <trkpt lat="46.84384" lon="5.94445">
        <ele>642</ele>
        <time>2011-02-15T13:53:04Z</time>
      </trkpt>
      <trkpt lat="46.84381" lon="5.94472">
        <ele>641</ele>
        <time>2011-02-15T13:53:19Z</time>
      </trkpt>
      <trkpt lat="46.84373" lon="5.94497">
        <ele>641</ele>
        <time>2011-02-15T13:53:36Z</time>
      </trkpt>
      <trkpt lat="46.8437" lon="5.94523">
        <ele>642</ele>
        <time>2011-02-15T13:53:50Z</time>
      </trkpt>
      <trkpt lat="46.84362" lon="5.94548">
        <ele>644</ele>
        <time>2011-02-15T13:54:01Z</time>
      </trkpt>
      <trkpt lat="46.84358" lon="5.94574">
        <ele>645</ele>
        <time>2011-02-15T13:54:13Z</time>
      </trkpt>
      <trkpt lat="46.84366" lon="5.94599">
        <ele>645</ele>
        <time>2011-02-15T13:54:26Z</time>
      </trkpt>
      <trkpt lat="46.84369" lon="5.94626">
        <ele>645</ele>
        <time>2011-02-15T13:54:42Z</time>
      </trkpt>
      <trkpt lat="46.8437" lon="5.94653">
        <ele>645</ele>
        <time>2011-02-15T13:54:54Z</time>
      </trkpt>
      <trkpt lat="46.84381" lon="5.94675">
        <ele>645</ele>
        <time>2011-02-15T13:55:39Z</time>
      </trkpt>
      <trkpt lat="46.84389" lon="5.947">
        <ele>646</ele>
        <time>2011-02-15T13:55:56Z</time>
      </trkpt>
      <trkpt lat="46.84397" lon="5.94725">
        <ele>647</ele>
        <time>2011-02-15T13:56:06Z</time>
      </trkpt>
      <trkpt lat="46.84405" lon="5.9475">
        <ele>648</ele>
        <time>2011-02-15T13:56:21Z</time>
      </trkpt>
      <trkpt lat="46.8442" lon="5.94765">
        <ele>648</ele>
        <time>2011-02-15T13:56:34Z</time>
      </trkpt>
      <trkpt lat="46.84437" lon="5.94777">
        <ele>647</ele>
        <time>2011-02-15T13:56:51Z</time>
      </trkpt>
      <trkpt lat="46.84458" lon="5.94781">
        <ele>645</ele>
        <time>2011-02-15T13:57:02Z</time>
      </trkpt>
      <trkpt lat="46.84478" lon="5.94786">
        <ele>644</ele>
        <time>2011-02-15T13:57:30Z</time>
      </trkpt>
      <trkpt lat="46.84497" lon="5.94792">
        <ele>643</ele>
        <time>2011-02-15T13:57:38Z</time>
      </trkpt>
      <trkpt lat="46.84515" lon="5.94794">
        <ele>644</ele>
        <time>2011-02-15T13:57:57Z</time>
      </trkpt>
      <trkpt lat="46.84528" lon="5.94774">
        <ele>643</ele>
        <time>2011-02-15T13:58:17Z</time>
      </trkpt>
      <trkpt lat="46.84541" lon="5.94753">
        <ele>642</ele>
        <time>2011-02-15T13:58:36Z</time>
      </trkpt>
      <trkpt lat="46.8455" lon="5.9473">
        <ele>641</ele>
        <time>2011-02-15T13:58:51Z</time>
      </trkpt>
      <trkpt lat="46.84563" lon="5.94703">
        <ele>640</ele>
        <time>2011-02-15T13:59:08Z</time>
      </trkpt>
      <trkpt lat="46.84574" lon="5.94682">
        <ele>641</ele>
        <time>2011-02-15T13:59:24Z</time>
      </trkpt>
      <trkpt lat="46.84587" lon="5.94661">
        <ele>642</ele>
        <time>2011-02-15T13:59:38Z</time>
      </trkpt>
      <trkpt lat="46.84597" lon="5.94638">
        <ele>644</ele>
        <time>2011-02-15T13:59:52Z</time>
      </trkpt>
      <trkpt lat="46.84608" lon="5.94616">
        <ele>645</ele>
        <time>2011-02-15T14:00:06Z</time>
      </trkpt>
      <trkpt lat="46.84616" lon="5.9459">
        <ele>645</ele>
        <time>2011-02-15T14:00:21Z</time>
      </trkpt>
      <trkpt lat="46.84627" lon="5.94568">
        <ele>645</ele>
        <time>2011-02-15T14:00:35Z</time>
      </trkpt>
      <trkpt lat="46.84639" lon="5.94548">
        <ele>646</ele>
        <time>2011-02-15T14:00:49Z</time>
      </trkpt>
      <trkpt lat="46.84656" lon="5.9453">
        <ele>648</ele>
        <time>2011-02-15T14:01:05Z</time>
      </trkpt>
      <trkpt lat="46.84674" lon="5.9453">
        <ele>649</ele>
        <time>2011-02-15T14:01:28Z</time>
      </trkpt>
      <trkpt lat="46.84692" lon="5.9454">
        <ele>649</ele>
        <time>2011-02-15T14:01:44Z</time>
      </trkpt>
      <trkpt lat="46.84709" lon="5.94552">
        <ele>649</ele>
        <time>2011-02-15T14:01:59Z</time>
      </trkpt>
      <trkpt lat="46.84727" lon="5.94567">
        <ele>650</ele>
        <time>2011-02-15T14:02:10Z</time>
      </trkpt>
      <trkpt lat="46.84744" lon="5.94579">
        <ele>651</ele>
        <time>2011-02-15T14:02:27Z</time>
      </trkpt>
      <trkpt lat="46.84762" lon="5.94589">
        <ele>652</ele>
        <time>2011-02-15T14:02:41Z</time>
      </trkpt>
      <trkpt lat="46.8478" lon="5.94601">
        <ele>654</ele>
        <time>2011-02-15T14:02:54Z</time>
      </trkpt>
      <trkpt lat="46.84798" lon="5.94608">
        <ele>654</ele>
        <time>2011-02-15T14:03:08Z</time>
      </trkpt>
      <trkpt lat="46.84815" lon="5.94616">
        <ele>654</ele>
        <time>2011-02-15T14:03:25Z</time>
      </trkpt>
      <trkpt lat="46.84833" lon="5.94622">
        <ele>654</ele>
        <time>2011-02-15T14:04:04Z</time>
      </trkpt>
      <trkpt lat="46.84856" lon="5.94628">
        <ele>653</ele>
        <time>2011-02-15T14:04:20Z</time>
      </trkpt>
      <trkpt lat="46.84875" lon="5.94634">
        <ele>653</ele>
        <time>2011-02-15T14:04:39Z</time>
      </trkpt>
      <trkpt lat="46.84893" lon="5.94642">
        <ele>653</ele>
        <time>2011-02-15T14:04:55Z</time>
      </trkpt>
      <trkpt lat="46.84914" lon="5.94646">
        <ele>654</ele>
        <time>2011-02-15T14:05:25Z</time>
      </trkpt>
      <trkpt lat="46.84932" lon="5.94654">
        <ele>654</ele>
        <time>2011-02-15T14:05:53Z</time>
      </trkpt>
      <trkpt lat="46.84942" lon="5.94678">
        <ele>654</ele>
        <time>2011-02-15T14:06:19Z</time>
      </trkpt>
      <trkpt lat="46.84933" lon="5.94701">
        <ele>654</ele>
        <time>2011-02-15T14:06:37Z</time>
      </trkpt>
      <trkpt lat="46.84924" lon="5.94725">
        <ele>654</ele>
        <time>2011-02-15T14:06:59Z</time>
      </trkpt>
      <trkpt lat="46.84914" lon="5.94748">
        <ele>653</ele>
        <time>2011-02-15T14:07:14Z</time>
      </trkpt>
      <trkpt lat="46.84907" lon="5.94773">
        <ele>653</ele>
        <time>2011-02-15T14:07:30Z</time>
      </trkpt>
      <trkpt lat="46.84898" lon="5.94798">
        <ele>652</ele>
        <time>2011-02-15T14:07:49Z</time>
      </trkpt>
      <trkpt lat="46.84892" lon="5.94823">
        <ele>650</ele>
        <time>2011-02-15T14:08:04Z</time>
      </trkpt>
      <trkpt lat="46.84888" lon="5.94851">
        <ele>648</ele>
        <time>2011-02-15T14:08:20Z</time>
      </trkpt>
      <trkpt lat="46.84884" lon="5.94877">
        <ele>648</ele>
        <time>2011-02-15T14:08:33Z</time>
      </trkpt>
      <trkpt lat="46.849" lon="5.94897">
        <ele>647</ele>
        <time>2011-02-15T14:08:53Z</time>
      </trkpt>
      <trkpt lat="46.84916" lon="5.94912">
        <ele>648</ele>
        <time>2011-02-15T14:09:07Z</time>
      </trkpt>
      <trkpt lat="46.84932" lon="5.94924">
        <ele>649</ele>
        <time>2011-02-15T14:09:20Z</time>
      </trkpt>
      <trkpt lat="46.8495" lon="5.94931">
        <ele>650</ele>
        <time>2011-02-15T14:09:35Z</time>
      </trkpt>
      <trkpt lat="46.84967" lon="5.94941">
        <ele>651</ele>
        <time>2011-02-15T14:09:49Z</time>
      </trkpt>
      <trkpt lat="46.84986" lon="5.94949">
        <ele>651</ele>
        <time>2011-02-15T14:10:03Z</time>
      </trkpt>
      <trkpt lat="46.85004" lon="5.9496">
        <ele>652</ele>
        <time>2011-02-15T14:10:16Z</time>
      </trkpt>
      <trkpt lat="46.85021" lon="5.94969">
        <ele>653</ele>
        <time>2011-02-15T14:10:29Z</time>
      </trkpt>
      <trkpt lat="46.85039" lon="5.9498">
        <ele>654</ele>
        <time>2011-02-15T14:10:43Z</time>
      </trkpt>
      <trkpt lat="46.85044" lon="5.95006">
        <ele>653</ele>
        <time>2011-02-15T14:11:16Z</time>
      </trkpt>
      <trkpt lat="46.85052" lon="5.94982">
        <ele>652</ele>
        <time>2011-02-15T14:11:47Z</time>
      </trkpt>
      <trkpt lat="46.8507" lon="5.94983">
        <ele>651</ele>
        <time>2011-02-15T14:12:01Z</time>
      </trkpt>
      <trkpt lat="46.85088" lon="5.94981">
        <ele>651</ele>
        <time>2011-02-15T14:12:16Z</time>
      </trkpt>
      <trkpt lat="46.85111" lon="5.94983">
        <ele>650</ele>
        <time>2011-02-15T14:12:34Z</time>
      </trkpt>
      <trkpt lat="46.8513" lon="5.94991">
        <ele>650</ele>
        <time>2011-02-15T14:12:47Z</time>
      </trkpt>
      <trkpt lat="46.85149" lon="5.94993">
        <ele>652</ele>
        <time>2011-02-15T14:13:01Z</time>
      </trkpt>
      <trkpt lat="46.85167" lon="5.94994">
        <ele>653</ele>
        <time>2011-02-15T14:13:14Z</time>
      </trkpt>
      <trkpt lat="46.85186" lon="5.94993">
        <ele>654</ele>
        <time>2011-02-15T14:13:29Z</time>
      </trkpt>
      <trkpt lat="46.85202" lon="5.95006">
        <ele>654</ele>
        <time>2011-02-15T14:13:42Z</time>
      </trkpt>
      <trkpt lat="46.8522" lon="5.95012">
        <ele>656</ele>
        <time>2011-02-15T14:13:57Z</time>
      </trkpt>
      <trkpt lat="46.85237" lon="5.95023">
        <ele>657</ele>
        <time>2011-02-15T14:14:12Z</time>
      </trkpt>
      <trkpt lat="46.85255" lon="5.95029">
        <ele>660</ele>
        <time>2011-02-15T14:14:26Z</time>
      </trkpt>
      <trkpt lat="46.85271" lon="5.95044">
        <ele>662</ele>
        <time>2011-02-15T14:14:41Z</time>
      </trkpt>
      <trkpt lat="46.8529" lon="5.95057">
        <ele>664</ele>
        <time>2011-02-15T14:14:57Z</time>
      </trkpt>
      <trkpt lat="46.85311" lon="5.95057">
        <ele>663</ele>
        <time>2011-02-15T14:15:23Z</time>
      </trkpt>
      <trkpt lat="46.8533" lon="5.95064">
        <ele>662</ele>
        <time>2011-02-15T14:15:42Z</time>
      </trkpt>
      <trkpt lat="46.85344" lon="5.9508">
        <ele>661</ele>
        <time>2011-02-15T14:15:53Z</time>
      </trkpt>
      <trkpt lat="46.8536" lon="5.95095">
        <ele>662</ele>
        <time>2011-02-15T14:16:05Z</time>
      </trkpt>
      <trkpt lat="46.85378" lon="5.95103">
        <ele>664</ele>
        <time>2011-02-15T14:16:22Z</time>
      </trkpt>
      <trkpt lat="46.85399" lon="5.95112">
        <ele>664</ele>
        <time>2011-02-15T14:16:41Z</time>
      </trkpt>
      <trkpt lat="46.85415" lon="5.95123">
        <ele>662</ele>
        <time>2011-02-15T14:16:54Z</time>
      </trkpt>
      <trkpt lat="46.85432" lon="5.95134">
        <ele>659</ele>
        <time>2011-02-15T14:17:09Z</time>
      </trkpt>
      <trkpt lat="46.85445" lon="5.95152">
        <ele>658</ele>
        <time>2011-02-15T14:17:24Z</time>
      </trkpt>
      <trkpt lat="46.85451" lon="5.95178">
        <ele>657</ele>
        <time>2011-02-15T14:17:40Z</time>
      </trkpt>
      <trkpt lat="46.85458" lon="5.95204">
        <ele>657</ele>
        <time>2011-02-15T14:17:53Z</time>
      </trkpt>
      <trkpt lat="46.85467" lon="5.95228">
        <ele>657</ele>
        <time>2011-02-15T14:18:07Z</time>
      </trkpt>
      <trkpt lat="46.85469" lon="5.95255">
        <ele>657</ele>
        <time>2011-02-15T14:18:22Z</time>
      </trkpt>
      <trkpt lat="46.85468" lon="5.95282">
        <ele>657</ele>
        <time>2011-02-15T14:18:39Z</time>
      </trkpt>
      <trkpt lat="46.85466" lon="5.9531">
        <ele>656</ele>
        <time>2011-02-15T14:18:57Z</time>
      </trkpt>
      <trkpt lat="46.85463" lon="5.95338">
        <ele>656</ele>
        <time>2011-02-15T14:19:09Z</time>
      </trkpt>
      <trkpt lat="46.85462" lon="5.95365">
        <ele>656</ele>
        <time>2011-02-15T14:19:21Z</time>
      </trkpt>
      <trkpt lat="46.85453" lon="5.9539">
        <ele>656</ele>
        <time>2011-02-15T14:19:38Z</time>
      </trkpt>
      <trkpt lat="46.8544" lon="5.95413">
        <ele>655</ele>
        <time>2011-02-15T14:19:56Z</time>
      </trkpt>
      <trkpt lat="46.85428" lon="5.95433">
        <ele>655</ele>
        <time>2011-02-15T14:20:09Z</time>
      </trkpt>
      <trkpt lat="46.85415" lon="5.95455">
        <ele>654</ele>
        <time>2011-02-15T14:20:25Z</time>
      </trkpt>
      <trkpt lat="46.85402" lon="5.95482">
        <ele>653</ele>
        <time>2011-02-15T14:20:40Z</time>
      </trkpt>
      <trkpt lat="46.85385" lon="5.95492">
        <ele>652</ele>
        <time>2011-02-15T14:20:55Z</time>
      </trkpt>
      <trkpt lat="46.85351" lon="5.95501">
        <ele>651</ele>
        <time>2011-02-15T14:21:22Z</time>
      </trkpt>
      <trkpt lat="46.85333" lon="5.95502">
        <ele>652</ele>
        <time>2011-02-15T14:21:37Z</time>
      </trkpt>
      <trkpt lat="46.85317" lon="5.95517">
        <ele>652</ele>
        <time>2011-02-15T14:21:48Z</time>
      </trkpt>
      <trkpt lat="46.85305" lon="5.95544">
        <ele>651</ele>
        <time>2011-02-15T14:22:07Z</time>
      </trkpt>
      <trkpt lat="46.85294" lon="5.95571">
        <ele>651</ele>
        <time>2011-02-15T14:22:24Z</time>
      </trkpt>
      <trkpt lat="46.85286" lon="5.95595">
        <ele>653</ele>
        <time>2011-02-15T14:22:37Z</time>
      </trkpt>
      <trkpt lat="46.85274" lon="5.95625">
        <ele>654</ele>
        <time>2011-02-15T14:23:03Z</time>
      </trkpt>
      <trkpt lat="46.8527" lon="5.95651">
        <ele>656</ele>
        <time>2011-02-15T14:23:10Z</time>
      </trkpt>
      <trkpt lat="46.85254" lon="5.95663">
        <ele>656</ele>
        <time>2011-02-15T14:23:25Z</time>
      </trkpt>
      <trkpt lat="46.85243" lon="5.95684">
        <ele>656</ele>
        <time>2011-02-15T14:23:37Z</time>
      </trkpt>
      <trkpt lat="46.85232" lon="5.95707">
        <ele>659</ele>
        <time>2011-02-15T14:23:51Z</time>
      </trkpt>
      <trkpt lat="46.85219" lon="5.9573">
        <ele>663</ele>
        <time>2011-02-15T14:24:09Z</time>
      </trkpt>
      <trkpt lat="46.85208" lon="5.95753">
        <ele>668</ele>
        <time>2011-02-15T14:24:21Z</time>
      </trkpt>
      <trkpt lat="46.85194" lon="5.95772">
        <ele>670</ele>
        <time>2011-02-15T14:24:34Z</time>
      </trkpt>
      <trkpt lat="46.85179" lon="5.95786">
        <ele>671</ele>
        <time>2011-02-15T14:24:48Z</time>
      </trkpt>
      <trkpt lat="46.85165" lon="5.95805">
        <ele>669</ele>
        <time>2011-02-15T14:25:05Z</time>
      </trkpt>
      <trkpt lat="46.85148" lon="5.95819">
        <ele>664</ele>
        <time>2011-02-15T14:25:21Z</time>
      </trkpt>
      <trkpt lat="46.85129" lon="5.95824">
        <ele>659</ele>
        <time>2011-02-15T14:25:35Z</time>
      </trkpt>
      <trkpt lat="46.85106" lon="5.95825">
        <ele>655</ele>
        <time>2011-02-15T14:25:52Z</time>
      </trkpt>
      <trkpt lat="46.8509" lon="5.95813">
        <ele>654</ele>
        <time>2011-02-15T14:26:02Z</time>
      </trkpt>
      <trkpt lat="46.85071" lon="5.95806">
        <ele>654</ele>
        <time>2011-02-15T14:26:18Z</time>
      </trkpt>
      <trkpt lat="46.85054" lon="5.95796">
        <ele>653</ele>
        <time>2011-02-15T14:26:33Z</time>
      </trkpt>
      <trkpt lat="46.85034" lon="5.95795">
        <ele>652</ele>
        <time>2011-02-15T14:26:47Z</time>
      </trkpt>
      <trkpt lat="46.85014" lon="5.95801">
        <ele>654</ele>
        <time>2011-02-15T14:26:59Z</time>
      </trkpt>
      <trkpt lat="46.84998" lon="5.95814">
        <ele>654</ele>
        <time>2011-02-15T14:27:37Z</time>
      </trkpt>
      <trkpt lat="46.8498" lon="5.95819">
        <ele>652</ele>
        <time>2011-02-15T14:27:51Z</time>
      </trkpt>
      <trkpt lat="46.84961" lon="5.95821">
        <ele>647</ele>
        <time>2011-02-15T14:28:23Z</time>
      </trkpt>
      <trkpt lat="46.84942" lon="5.95819">
        <ele>645</ele>
        <time>2011-02-15T14:28:56Z</time>
      </trkpt>
      <trkpt lat="46.84925" lon="5.95829">
        <ele>644</ele>
        <time>2011-02-15T14:29:11Z</time>
      </trkpt>
      <trkpt lat="46.84923" lon="5.95855">
        <ele>643</ele>
        <time>2011-02-15T14:29:25Z</time>
      </trkpt>
      <trkpt lat="46.84906" lon="5.95866">
        <ele>642</ele>
        <time>2011-02-15T14:29:41Z</time>
      </trkpt>
      <trkpt lat="46.84887" lon="5.95856">
        <ele>640</ele>
        <time>2011-02-15T14:30:17Z</time>
      </trkpt>
      <trkpt lat="46.84873" lon="5.95836">
        <ele>639</ele>
        <time>2011-02-15T14:30:44Z</time>
      </trkpt>
      <trkpt lat="46.84861" lon="5.95859">
        <ele>638</ele>
        <time>2011-02-15T14:31:26Z</time>
      </trkpt>
      <trkpt lat="46.84863" lon="5.95885">
        <ele>639</ele>
        <time>2011-02-15T14:31:49Z</time>
      </trkpt>
      <trkpt lat="46.84876" lon="5.95904">
        <ele>641</ele>
        <time>2011-02-15T14:32:32Z</time>
      </trkpt>
      <trkpt lat="46.84872" lon="5.95929">
        <ele>642</ele>
        <time>2011-02-15T14:32:56Z</time>
      </trkpt>
      <trkpt lat="46.84871" lon="5.95956">
        <ele>643</ele>
        <time>2011-02-15T14:33:15Z</time>
      </trkpt>
      <trkpt lat="46.84872" lon="5.95983">
        <ele>642</ele>
        <time>2011-02-15T14:33:34Z</time>
      </trkpt>
      <trkpt lat="46.84872" lon="5.96014">
        <ele>640</ele>
        <time>2011-02-15T14:33:54Z</time>
      </trkpt>
      <trkpt lat="46.84869" lon="5.96042">
        <ele>636</ele>
        <time>2011-02-15T14:34:12Z</time>
      </trkpt>
      <trkpt lat="46.84868" lon="5.96069">
        <ele>633</ele>
        <time>2011-02-15T14:34:29Z</time>
      </trkpt>
      <trkpt lat="46.84861" lon="5.96095">
        <ele>634</ele>
        <time>2011-02-15T14:34:42Z</time>
      </trkpt>
      <trkpt lat="46.84848" lon="5.96117">
        <ele>635</ele>
        <time>2011-02-15T14:34:59Z</time>
      </trkpt>
      <trkpt lat="46.84832" lon="5.96131">
        <ele>639</ele>
        <time>2011-02-15T14:35:14Z</time>
      </trkpt>
      <trkpt lat="46.84814" lon="5.96143">
        <ele>640</ele>
        <time>2011-02-15T14:35:30Z</time>
      </trkpt>
      <trkpt lat="46.84797" lon="5.96158">
        <ele>642</ele>
        <time>2011-02-15T14:35:45Z</time>
      </trkpt>
      <trkpt lat="46.84779" lon="5.96175">
        <ele>643</ele>
        <time>2011-02-15T14:36:04Z</time>
      </trkpt>
      <trkpt lat="46.84766" lon="5.96194">
        <ele>645</ele>
        <time>2011-02-15T14:36:20Z</time>
      </trkpt>
      <trkpt lat="46.84754" lon="5.96216">
        <ele>645</ele>
        <time>2011-02-15T14:36:37Z</time>
      </trkpt>
      <trkpt lat="46.8474" lon="5.96239">
        <ele>643</ele>
        <time>2011-02-15T14:36:56Z</time>
      </trkpt>
      <trkpt lat="46.84732" lon="5.96266">
        <ele>642</ele>
        <time>2011-02-15T14:37:13Z</time>
      </trkpt>
      <trkpt lat="46.84719" lon="5.96287">
        <ele>641</ele>
        <time>2011-02-15T14:37:58Z</time>
      </trkpt>
      <trkpt lat="46.84709" lon="5.96317">
        <ele>640</ele>
        <time>2011-02-15T14:38:16Z</time>
      </trkpt>
      <trkpt lat="46.84704" lon="5.96342">
        <ele>638</ele>
        <time>2011-02-15T14:38:31Z</time>
      </trkpt>
      <trkpt lat="46.84699" lon="5.96368">
        <ele>637</ele>
        <time>2011-02-15T14:38:45Z</time>
      </trkpt>
      <trkpt lat="46.84694" lon="5.96393">
        <ele>635</ele>
        <time>2011-02-15T14:39:00Z</time>
      </trkpt>
      <trkpt lat="46.84686" lon="5.96419">
        <ele>635</ele>
        <time>2011-02-15T14:39:21Z</time>
      </trkpt>
      <trkpt lat="46.84686" lon="5.96445">
        <ele>635</ele>
        <time>2011-02-15T14:39:47Z</time>
      </trkpt>
      <trkpt lat="46.84681" lon="5.96472">
        <ele>637</ele>
        <time>2011-02-15T14:40:03Z</time>
      </trkpt>
      <trkpt lat="46.8468" lon="5.96499">
        <ele>638</ele>
        <time>2011-02-15T14:40:19Z</time>
      </trkpt>
      <trkpt lat="46.84682" lon="5.9653">
        <ele>641</ele>
        <time>2011-02-15T14:40:39Z</time>
      </trkpt>
      <trkpt lat="46.84681" lon="5.96557">
        <ele>639</ele>
        <time>2011-02-15T14:40:54Z</time>
      </trkpt>
      <trkpt lat="46.84681" lon="5.96583">
        <ele>638</ele>
        <time>2011-02-15T14:41:07Z</time>
      </trkpt>
      <trkpt lat="46.84677" lon="5.96609">
        <ele>635</ele>
        <time>2011-02-15T14:41:26Z</time>
      </trkpt>
      <trkpt lat="46.84672" lon="5.96635">
        <ele>635</ele>
        <time>2011-02-15T14:41:41Z</time>
      </trkpt>
      <trkpt lat="46.84667" lon="5.96661">
        <ele>634</ele>
        <time>2011-02-15T14:42:11Z</time>
      </trkpt>
      <trkpt lat="46.84656" lon="5.96684">
        <ele>632</ele>
        <time>2011-02-15T14:44:00Z</time>
      </trkpt>
      <trkpt lat="46.84641" lon="5.96699">
        <ele>629</ele>
        <time>2011-02-15T14:44:14Z</time>
      </trkpt>
      <trkpt lat="46.84628" lon="5.96717">
        <ele>628</ele>
        <time>2011-02-15T14:44:27Z</time>
      </trkpt>
      <trkpt lat="46.84626" lon="5.96746">
        <ele>629</ele>
        <time>2011-02-15T14:44:46Z</time>
      </trkpt>
      <trkpt lat="46.84629" lon="5.96773">
        <ele>630</ele>
        <time>2011-02-15T14:45:03Z</time>
      </trkpt>
      <trkpt lat="46.84627" lon="5.96801">
        <ele>632</ele>
        <time>2011-02-15T14:45:21Z</time>
      </trkpt>
      <trkpt lat="46.84618" lon="5.96828">
        <ele>635</ele>
        <time>2011-02-15T14:45:38Z</time>
      </trkpt>
      <trkpt lat="46.84615" lon="5.96854">
        <ele>638</ele>
        <time>2011-02-15T14:46:07Z</time>
      </trkpt>
      <trkpt lat="46.84601" lon="5.9687">
        <ele>638</ele>
        <time>2011-02-15T14:47:02Z</time>
      </trkpt>
      <trkpt lat="46.84582" lon="5.96862">
        <ele>638</ele>
        <time>2011-02-15T14:47:22Z</time>
      </trkpt>
      <trkpt lat="46.84563" lon="5.9686">
        <ele>637</ele>
        <time>2011-02-15T14:47:57Z</time>
      </trkpt>
      <trkpt lat="46.84545" lon="5.96855">
        <ele>637</ele>
        <time>2011-02-15T14:48:09Z</time>
      </trkpt>
      <trkpt lat="46.84526" lon="5.96849">
        <ele>639</ele>
        <time>2011-02-15T14:48:22Z</time>
      </trkpt>
      <trkpt lat="46.84507" lon="5.96851">
        <ele>644</ele>
        <time>2011-02-15T14:48:36Z</time>
      </trkpt>
      <trkpt lat="46.84488" lon="5.96856">
        <ele>649</ele>
        <time>2011-02-15T14:48:54Z</time>
      </trkpt>
      <trkpt lat="46.84471" lon="5.96864">
        <ele>653</ele>
        <time>2011-02-15T14:49:16Z</time>
      </trkpt>
      <trkpt lat="46.84472" lon="5.96838">
        <ele>653</ele>
        <time>2011-02-15T14:50:48Z</time>
      </trkpt>
      <trkpt lat="46.84463" lon="5.96815">
        <ele>650</ele>
        <time>2011-02-15T14:51:05Z</time>
      </trkpt>
      <trkpt lat="46.84449" lon="5.96797">
        <ele>645</ele>
        <time>2011-02-15T14:51:18Z</time>
      </trkpt>
      <trkpt lat="46.84439" lon="5.96773">
        <ele>641</ele>
        <time>2011-02-15T14:51:30Z</time>
      </trkpt>
      <trkpt lat="46.84427" lon="5.96749">
        <ele>639</ele>
        <time>2011-02-15T14:51:43Z</time>
      </trkpt>
      <trkpt lat="46.84415" lon="5.9673">
        <ele>640</ele>
        <time>2011-02-15T14:52:02Z</time>
      </trkpt>
      <trkpt lat="46.84395" lon="5.96718">
        <ele>640</ele>
        <time>2011-02-15T14:52:17Z</time>
      </trkpt>
      <trkpt lat="46.84377" lon="5.96715">
        <ele>639</ele>
        <time>2011-02-15T14:52:29Z</time>
      </trkpt>
      <trkpt lat="46.84359" lon="5.96723">
        <ele>638</ele>
        <time>2011-02-15T14:52:44Z</time>
      </trkpt>
      <trkpt lat="46.84338" lon="5.96731">
        <ele>637</ele>
        <time>2011-02-15T14:53:01Z</time>
      </trkpt>
      <trkpt lat="46.8432" lon="5.96736">
        <ele>636</ele>
        <time>2011-02-15T14:53:15Z</time>
      </trkpt>
      <trkpt lat="46.84301" lon="5.96741">
        <ele>636</ele>
        <time>2011-02-15T14:53:29Z</time>
      </trkpt>
      <trkpt lat="46.84283" lon="5.96735">
        <ele>636</ele>
        <time>2011-02-15T14:53:42Z</time>
      </trkpt>
      <trkpt lat="46.84264" lon="5.96734">
        <ele>635</ele>
        <time>2011-02-15T14:53:57Z</time>
      </trkpt>
      <trkpt lat="46.84248" lon="5.96722">
        <ele>634</ele>
        <time>2011-02-15T14:54:10Z</time>
      </trkpt>
      <trkpt lat="46.84232" lon="5.96709">
        <ele>633</ele>
        <time>2011-02-15T14:54:24Z</time>
      </trkpt>
      <trkpt lat="46.84217" lon="5.96694">
        <ele>633</ele>
        <time>2011-02-15T14:54:45Z</time>
      </trkpt>
      <trkpt lat="46.842" lon="5.96677">
        <ele>632</ele>
        <time>2011-02-15T14:55:03Z</time>
      </trkpt>
      <trkpt lat="46.84191" lon="5.96653">
        <ele>630</ele>
        <time>2011-02-15T14:55:14Z</time>
      </trkpt>
      <trkpt lat="46.84178" lon="5.96631">
        <ele>629</ele>
        <time>2011-02-15T14:55:31Z</time>
      </trkpt>
      <trkpt lat="46.84164" lon="5.96611">
        <ele>628</ele>
        <time>2011-02-15T14:55:47Z</time>
      </trkpt>
      <trkpt lat="46.84153" lon="5.96589">
        <ele>627</ele>
        <time>2011-02-15T14:56:00Z</time>
      </trkpt>
      <trkpt lat="46.84141" lon="5.96567">
        <ele>623</ele>
        <time>2011-02-15T14:56:20Z</time>
      </trkpt>
      <trkpt lat="46.84134" lon="5.96542">
        <ele>621</ele>
        <time>2011-02-15T14:56:31Z</time>
      </trkpt>
      <trkpt lat="46.84122" lon="5.96519">
        <ele>620</ele>
        <time>2011-02-15T14:56:46Z</time>
      </trkpt>
      <trkpt lat="46.84103" lon="5.96521">
        <ele>620</ele>
        <time>2011-02-15T14:57:00Z</time>
      </trkpt>
      <trkpt lat="46.84089" lon="5.96538">
        <ele>621</ele>
        <time>2011-02-15T14:57:15Z</time>
      </trkpt>
      <trkpt lat="46.84073" lon="5.96553">
        <ele>622</ele>
        <time>2011-02-15T14:57:28Z</time>
      </trkpt>
      <trkpt lat="46.84056" lon="5.96565">
        <ele>625</ele>
        <time>2011-02-15T14:57:44Z</time>
      </trkpt>
      <trkpt lat="46.84037" lon="5.96563">
        <ele>627</ele>
        <time>2011-02-15T14:58:00Z</time>
      </trkpt>
      <trkpt lat="46.8402" lon="5.96551">
        <ele>628</ele>
        <time>2011-02-15T14:58:15Z</time>
      </trkpt>
      <trkpt lat="46.84006" lon="5.96535">
        <ele>629</ele>
        <time>2011-02-15T14:58:31Z</time>
      </trkpt>
      <trkpt lat="46.83992" lon="5.96518">
        <ele>629</ele>
        <time>2011-02-15T14:58:43Z</time>
      </trkpt>
      <trkpt lat="46.83977" lon="5.96504">
        <ele>628</ele>
        <time>2011-02-15T14:58:58Z</time>
      </trkpt>
      <trkpt lat="46.83964" lon="5.96482">
        <ele>628</ele>
        <time>2011-02-15T14:59:11Z</time>
      </trkpt>
      <trkpt lat="46.83954" lon="5.96459">
        <ele>626</ele>
        <time>2011-02-15T14:59:23Z</time>
      </trkpt>
      <trkpt lat="46.83944" lon="5.96437">
        <ele>625</ele>
        <time>2011-02-15T14:59:36Z</time>
      </trkpt>
      <trkpt lat="46.83933" lon="5.96415">
        <ele>624</ele>
        <time>2011-02-15T14:59:52Z</time>
      </trkpt>
      <trkpt lat="46.83921" lon="5.96395">
        <ele>625</ele>
        <time>2011-02-15T15:00:06Z</time>
      </trkpt>
      <trkpt lat="46.83912" lon="5.96371">
        <ele>625</ele>
        <time>2011-02-15T15:00:17Z</time>
      </trkpt>
      <trkpt lat="46.83901" lon="5.96351">
        <ele>624</ele>
        <time>2011-02-15T15:00:36Z</time>
      </trkpt>
      <trkpt lat="46.8389" lon="5.96329">
        <ele>623</ele>
        <time>2011-02-15T15:00:53Z</time>
      </trkpt>
      <trkpt lat="46.83879" lon="5.96308">
        <ele>621</ele>
        <time>2011-02-15T15:01:09Z</time>
      </trkpt>
      <trkpt lat="46.8387" lon="5.96285">
        <ele>620</ele>
        <time>2011-02-15T15:01:20Z</time>
      </trkpt>
      <trkpt lat="46.83858" lon="5.96262">
        <ele>620</ele>
        <time>2011-02-15T15:01:34Z</time>
      </trkpt>
      <trkpt lat="46.83842" lon="5.96248">
        <ele>622</ele>
        <time>2011-02-15T15:01:51Z</time>
      </trkpt>
      <trkpt lat="46.83834" lon="5.96217">
        <ele>625</ele>
        <time>2011-02-15T15:02:07Z</time>
      </trkpt>
      <trkpt lat="46.83829" lon="5.9619">
        <ele>628</ele>
        <time>2011-02-15T15:02:24Z</time>
      </trkpt>
      <trkpt lat="46.83825" lon="5.96163">
        <ele>628</ele>
        <time>2011-02-15T15:02:35Z</time>
      </trkpt>
      <trkpt lat="46.83821" lon="5.96137">
        <ele>626</ele>
        <time>2011-02-15T15:02:49Z</time>
      </trkpt>
      <trkpt lat="46.83819" lon="5.96108">
        <ele>625</ele>
        <time>2011-02-15T15:03:03Z</time>
      </trkpt>
      <trkpt lat="46.83824" lon="5.96081">
        <ele>623</ele>
        <time>2011-02-15T15:03:19Z</time>
      </trkpt>
      <trkpt lat="46.83826" lon="5.96053">
        <ele>623</ele>
        <time>2011-02-15T15:03:34Z</time>
      </trkpt>
      <trkpt lat="46.83828" lon="5.96023">
        <ele>622</ele>
        <time>2011-02-15T15:03:51Z</time>
      </trkpt>
      <trkpt lat="46.83833" lon="5.95997">
        <ele>623</ele>
        <time>2011-02-15T15:04:06Z</time>
      </trkpt>
      <trkpt lat="46.83834" lon="5.9597">
        <ele>622</ele>
        <time>2011-02-15T15:04:21Z</time>
      </trkpt>
      <trkpt lat="46.83829" lon="5.95943">
        <ele>621</ele>
        <time>2011-02-15T15:04:36Z</time>
      </trkpt>
      <trkpt lat="46.83818" lon="5.95921">
        <ele>619</ele>
        <time>2011-02-15T15:05:01Z</time>
      </trkpt>
      <trkpt lat="46.83804" lon="5.95903">
        <ele>617</ele>
        <time>2011-02-15T15:05:14Z</time>
      </trkpt>
      <trkpt lat="46.83793" lon="5.95882">
        <ele>615</ele>
        <time>2011-02-15T15:05:28Z</time>
      </trkpt>
      <trkpt lat="46.83785" lon="5.95856">
        <ele>613</ele>
        <time>2011-02-15T15:05:43Z</time>
      </trkpt>
      <trkpt lat="46.83788" lon="5.9583">
        <ele>611</ele>
        <time>2011-02-15T15:05:58Z</time>
      </trkpt>
      <trkpt lat="46.83792" lon="5.95803">
        <ele>610</ele>
        <time>2011-02-15T15:06:31Z</time>
      </trkpt>
      <trkpt lat="46.83811" lon="5.95793">
        <ele>609</ele>
        <time>2011-02-15T15:06:40Z</time>
      </trkpt>
      <trkpt lat="46.83822" lon="5.95771">
        <ele>608</ele>
        <time>2011-02-15T15:06:56Z</time>
      </trkpt>
      <trkpt lat="46.83825" lon="5.95744">
        <ele>607</ele>
        <time>2011-02-15T15:07:11Z</time>
      </trkpt>
      <trkpt lat="46.83829" lon="5.95718">
        <ele>606</ele>
        <time>2011-02-15T15:07:24Z</time>
      </trkpt>
      <trkpt lat="46.83829" lon="5.95691">
        <ele>607</ele>
        <time>2011-02-15T15:07:51Z</time>
      </trkpt>
      <trkpt lat="46.83825" lon="5.95664">
        <ele>607</ele>
        <time>2011-02-15T15:08:04Z</time>
      </trkpt>
      <trkpt lat="46.8382" lon="5.95638">
        <ele>606</ele>
        <time>2011-02-15T15:08:17Z</time>
      </trkpt>
      <trkpt lat="46.83821" lon="5.9561">
        <ele>605</ele>
        <time>2011-02-15T15:08:34Z</time>
      </trkpt>
      <trkpt lat="46.83827" lon="5.95583">
        <ele>605</ele>
        <time>2011-02-15T15:08:47Z</time>
      </trkpt>
      <trkpt lat="46.8383" lon="5.95556">
        <ele>605</ele>
        <time>2011-02-15T15:09:12Z</time>
      </trkpt>
      <trkpt lat="46.83836" lon="5.9553">
        <ele>607</ele>
        <time>2011-02-15T15:09:25Z</time>
      </trkpt>
      <trkpt lat="46.83838" lon="5.95504">
        <ele>607</ele>
        <time>2011-02-15T15:09:43Z</time>
      </trkpt>
      <trkpt lat="46.83839" lon="5.95477">
        <ele>606</ele>
        <time>2011-02-15T15:10:00Z</time>
      </trkpt>
      <trkpt lat="46.83841" lon="5.9545">
        <ele>605</ele>
        <time>2011-02-15T15:10:14Z</time>
      </trkpt>
      <trkpt lat="46.8384" lon="5.95424">
        <ele>605</ele>
        <time>2011-02-15T15:10:27Z</time>
      </trkpt>
      <trkpt lat="46.83837" lon="5.95397">
        <ele>606</ele>
        <time>2011-02-15T15:10:41Z</time>
      </trkpt>
      <trkpt lat="46.83833" lon="5.95371">
        <ele>606</ele>
        <time>2011-02-15T15:11:05Z</time>
      </trkpt>
      <trkpt lat="46.83834" lon="5.95344">
        <ele>607</ele>
        <time>2011-02-15T15:11:22Z</time>
      </trkpt>
      <trkpt lat="46.83835" lon="5.95313">
        <ele>608</ele>
        <time>2011-02-15T15:11:39Z</time>
      </trkpt>
      <trkpt lat="46.83841" lon="5.95286">
        <ele>609</ele>
        <time>2011-02-15T15:11:54Z</time>
      </trkpt>
      <trkpt lat="46.83853" lon="5.95266">
        <ele>612</ele>
        <time>2011-02-15T15:12:10Z</time>
      </trkpt>
      <trkpt lat="46.83873" lon="5.95261">
        <ele>614</ele>
        <time>2011-02-15T15:12:31Z</time>
      </trkpt>
      <trkpt lat="46.83891" lon="5.95254">
        <ele>616</ele>
        <time>2011-02-15T15:13:19Z</time>
      </trkpt>
      <trkpt lat="46.83909" lon="5.95263">
        <ele>618</ele>
        <time>2011-02-15T15:13:37Z</time>
      </trkpt>
      <trkpt lat="46.83928" lon="5.95267">
        <ele>618</ele>
        <time>2011-02-15T15:13:54Z</time>
      </trkpt>
      <trkpt lat="46.83946" lon="5.95265">
        <ele>617</ele>
        <time>2011-02-15T15:14:11Z</time>
      </trkpt>
      <trkpt lat="46.83967" lon="5.95259">
        <ele>615</ele>
        <time>2011-02-15T15:14:23Z</time>
      </trkpt>
      <trkpt lat="46.83983" lon="5.95248">
        <ele>615</ele>
        <time>2011-02-15T15:14:36Z</time>
      </trkpt>
      <trkpt lat="46.84002" lon="5.95237">
        <ele>616</ele>
        <time>2011-02-15T15:14:52Z</time>
      </trkpt>
      <trkpt lat="46.84018" lon="5.95226">
        <ele>615</ele>
        <time>2011-02-15T15:15:04Z</time>
      </trkpt>
      <trkpt lat="46.84028" lon="5.95203">
        <ele>613</ele>
        <time>2011-02-15T15:15:22Z</time>
      </trkpt>
      <trkpt lat="46.8404" lon="5.95179">
        <ele>611</ele>
        <time>2011-02-15T15:15:39Z</time>
      </trkpt>
      <trkpt lat="46.84052" lon="5.95155">
        <ele>609</ele>
        <time>2011-02-15T15:15:54Z</time>
      </trkpt>
      <trkpt lat="46.84065" lon="5.95136">
        <ele>610</ele>
        <time>2011-02-15T15:16:04Z</time>
      </trkpt>
      <trkpt lat="46.84076" lon="5.95112">
        <ele>612</ele>
        <time>2011-02-15T15:16:19Z</time>
      </trkpt>
      <trkpt lat="46.84076" lon="5.95085">
        <ele>614</ele>
        <time>2011-02-15T15:16:33Z</time>
      </trkpt>
      <trkpt lat="46.84075" lon="5.95058">
        <ele>615</ele>
        <time>2011-02-15T15:16:47Z</time>
      </trkpt>
      <trkpt lat="46.84074" lon="5.95031">
        <ele>617</ele>
        <time>2011-02-15T15:17:00Z</time>
      </trkpt>
      <trkpt lat="46.84082" lon="5.95002">
        <ele>620</ele>
        <time>2011-02-15T15:17:18Z</time>
      </trkpt>
      <trkpt lat="46.84082" lon="5.94975">
        <ele>623</ele>
        <time>2011-02-15T15:17:33Z</time>
      </trkpt>
      <trkpt lat="46.84093" lon="5.94949">
        <ele>625</ele>
        <time>2011-02-15T15:17:52Z</time>
      </trkpt>
      <trkpt lat="46.84095" lon="5.94923">
        <ele>627</ele>
        <time>2011-02-15T15:18:11Z</time>
      </trkpt>
      <trkpt lat="46.84096" lon="5.94896">
        <ele>629</ele>
        <time>2011-02-15T15:18:27Z</time>
      </trkpt>
      <trkpt lat="46.841" lon="5.94869">
        <ele>630</ele>
        <time>2011-02-15T15:18:44Z</time>
      </trkpt>
      <trkpt lat="46.84102" lon="5.94843">
        <ele>630</ele>
        <time>2011-02-15T15:19:04Z</time>
      </trkpt>
      <trkpt lat="46.8411" lon="5.94818">
        <ele>631</ele>
        <time>2011-02-15T15:19:34Z</time>
      </trkpt>
      <trkpt lat="46.84114" lon="5.94791">
        <ele>632</ele>
        <time>2011-02-15T15:19:47Z</time>
      </trkpt>
      <trkpt lat="46.84122" lon="5.94766">
        <ele>634</ele>
        <time>2011-02-15T15:20:05Z</time>
      </trkpt>
      <trkpt lat="46.84138" lon="5.94754">
        <ele>635</ele>
        <time>2011-02-15T15:20:22Z</time>
      </trkpt>
      <trkpt lat="46.84157" lon="5.94759">
        <ele>638</ele>
        <time>2011-02-15T15:20:37Z</time>
      </trkpt>
      <trkpt lat="46.84175" lon="5.9476">
        <ele>639</ele>
        <time>2011-02-15T15:20:52Z</time>
      </trkpt>
      <trkpt lat="46.84192" lon="5.94771">
        <ele>641</ele>
        <time>2011-02-15T15:21:04Z</time>
      </trkpt>
      <trkpt lat="46.8421" lon="5.94771">
        <ele>641</ele>
        <time>2011-02-15T15:21:22Z</time>
      </trkpt>
      <trkpt lat="46.84228" lon="5.94762">
        <ele>641</ele>
        <time>2011-02-15T15:22:15Z</time>
      </trkpt>
      <trkpt lat="46.84247" lon="5.94761">
        <ele>642</ele>
        <time>2011-02-15T15:22:31Z</time>
      </trkpt>
      <trkpt lat="46.84267" lon="5.94762">
        <ele>642</ele>
        <time>2011-02-15T15:22:46Z</time>
      </trkpt>
      <trkpt lat="46.84285" lon="5.94765">
        <ele>641</ele>
        <time>2011-02-15T15:23:07Z</time>
      </trkpt>
      <trkpt lat="46.84304" lon="5.94767">
        <ele>641</ele>
        <time>2011-02-15T15:23:20Z</time>
      </trkpt>
      <trkpt lat="46.84322" lon="5.94768">
        <ele>641</ele>
        <time>2011-02-15T15:23:33Z</time>
      </trkpt>
      <trkpt lat="46.84341" lon="5.94771">
        <ele>643</ele>
        <time>2011-02-15T15:23:46Z</time>
      </trkpt>
      <trkpt lat="46.84361" lon="5.94775">
        <ele>645</ele>
        <time>2011-02-15T15:24:02Z</time>
      </trkpt>
      <trkpt lat="46.8438" lon="5.94778">
        <ele>646</ele>
        <time>2011-02-15T15:24:17Z</time>
      </trkpt>
      <trkpt lat="46.84399" lon="5.94778">
        <ele>647</ele>
        <time>2011-02-15T15:24:41Z</time>
      </trkpt>
      <trkpt lat="46.84418" lon="5.94774">
        <ele>647</ele>
        <time>2011-02-15T15:25:14Z</time>
      </trkpt>
      <trkpt lat="46.84417" lon="5.94748">
        <ele>645</ele>
        <time>2011-02-15T15:25:54Z</time>
      </trkpt>
      <trkpt lat="46.84406" lon="5.94725">
        <ele>644</ele>
        <time>2011-02-15T15:26:08Z</time>
      </trkpt>
      <trkpt lat="46.84395" lon="5.94703">
        <ele>643</ele>
        <time>2011-02-15T15:26:23Z</time>
      </trkpt>
      <trkpt lat="46.84385" lon="5.9468">
        <ele>644</ele>
        <time>2011-02-15T15:26:44Z</time>
      </trkpt>
      <trkpt lat="46.84377" lon="5.94645">
        <ele>643</ele>
        <time>2011-02-15T15:27:07Z</time>
      </trkpt>
      <trkpt lat="46.84371" lon="5.94617">
        <ele>643</ele>
        <time>2011-02-15T15:27:13Z</time>
      </trkpt>
      <trkpt lat="46.84367" lon="5.94582">
        <ele>641</ele>
        <time>2011-02-15T15:27:33Z</time>
      </trkpt>
      <trkpt lat="46.84369" lon="5.94553">
        <ele>641</ele>
        <time>2011-02-15T15:27:46Z</time>
      </trkpt>
      <trkpt lat="46.84372" lon="5.94525">
        <ele>641</ele>
        <time>2011-02-15T15:28:04Z</time>
      </trkpt>
      <trkpt lat="46.84375" lon="5.94498">
        <ele>641</ele>
        <time>2011-02-15T15:28:19Z</time>
      </trkpt>
      <trkpt lat="46.84379" lon="5.94471">
        <ele>641</ele>
        <time>2011-02-15T15:28:34Z</time>
      </trkpt>
      <trkpt lat="46.84381" lon="5.94442">
        <ele>641</ele>
        <time>2011-02-15T15:28:51Z</time>
      </trkpt>
      <trkpt lat="46.84391" lon="5.94419">
        <ele>640</ele>
        <time>2011-02-15T15:29:04Z</time>
      </trkpt>
      <trkpt lat="46.84392" lon="5.94387">
        <ele>640</ele>
        <time>2011-02-15T15:29:32Z</time>
      </trkpt>
      <trkpt lat="46.84384" lon="5.94363">
        <ele>640</ele>
        <time>2011-02-15T15:29:38Z</time>
      </trkpt>
      <trkpt lat="46.84365" lon="5.94343">
        <ele>638</ele>
        <time>2011-02-15T15:29:56Z</time>
      </trkpt>
      <trkpt lat="46.84348" lon="5.94331">
        <ele>636</ele>
        <time>2011-02-15T15:30:12Z</time>
      </trkpt>
      <trkpt lat="46.84333" lon="5.94316">
        <ele>634</ele>
        <time>2011-02-15T15:30:29Z</time>
      </trkpt>
      <trkpt lat="46.84319" lon="5.94298">
        <ele>635</ele>
        <time>2011-02-15T15:30:44Z</time>
      </trkpt>
      <trkpt lat="46.84305" lon="5.94276">
        <ele>636</ele>
        <time>2011-02-15T15:30:56Z</time>
      </trkpt>
      <trkpt lat="46.843" lon="5.9425">
        <ele>638</ele>
        <time>2011-02-15T15:31:32Z</time>
      </trkpt>
      <trkpt lat="46.84297" lon="5.94221">
        <ele>638</ele>
        <time>2011-02-15T15:31:45Z</time>
      </trkpt>
      <trkpt lat="46.84297" lon="5.94191">
        <ele>637</ele>
        <time>2011-02-15T15:32:07Z</time>
      </trkpt>
      <trkpt lat="46.84296" lon="5.94163">
        <ele>636</ele>
        <time>2011-02-15T15:32:19Z</time>
      </trkpt>
      <trkpt lat="46.84295" lon="5.94131">
        <ele>635</ele>
        <time>2011-02-15T15:32:35Z</time>
      </trkpt>
      <trkpt lat="46.84294" lon="5.94104">
        <ele>634</ele>
        <time>2011-02-15T15:33:14Z</time>
      </trkpt>
      <trkpt lat="46.84295" lon="5.94078">
        <ele>634</ele>
        <time>2011-02-15T15:33:24Z</time>
      </trkpt>
      <trkpt lat="46.84299" lon="5.94051">
        <ele>634</ele>
        <time>2011-02-15T15:33:39Z</time>
      </trkpt>
      <trkpt lat="46.843" lon="5.94022">
        <ele>633</ele>
        <time>2011-02-15T15:33:53Z</time>
      </trkpt>
      <trkpt lat="46.84304" lon="5.93996">
        <ele>632</ele>
        <time>2011-02-15T15:34:07Z</time>
      </trkpt>
      <trkpt lat="46.84306" lon="5.93969">
        <ele>630</ele>
        <time>2011-02-15T15:34:22Z</time>
      </trkpt>
      <trkpt lat="46.84309" lon="5.93938">
        <ele>628</ele>
        <time>2011-02-15T15:34:42Z</time>
      </trkpt>
      <trkpt lat="46.84312" lon="5.93912">
        <ele>625</ele>
        <time>2011-02-15T15:35:09Z</time>
      </trkpt>
      <trkpt lat="46.84316" lon="5.93885">
        <ele>622</ele>
        <time>2011-02-15T15:35:28Z</time>
      </trkpt>
      <trkpt lat="46.84308" lon="5.93859">
        <ele>619</ele>
        <time>2011-02-15T15:35:43Z</time>
      </trkpt>
      <trkpt lat="46.84308" lon="5.93832">
        <ele>618</ele>
        <time>2011-02-15T15:36:00Z</time>
      </trkpt>
      <trkpt lat="46.84325" lon="5.93821">
        <ele>617</ele>
        <time>2011-02-15T15:36:19Z</time>
      </trkpt>
      <trkpt lat="46.84344" lon="5.93824">
        <ele>618</ele>
        <time>2011-02-15T15:36:35Z</time>
      </trkpt>
      <trkpt lat="46.84363" lon="5.93829">
        <ele>617</ele>
        <time>2011-02-15T15:36:53Z</time>
      </trkpt>
      <trkpt lat="46.84381" lon="5.93829">
        <ele>616</ele>
        <time>2011-02-15T15:37:13Z</time>
      </trkpt>
      <trkpt lat="46.84398" lon="5.93819">
        <ele>615</ele>
        <time>2011-02-15T15:37:27Z</time>
      </trkpt>
      <trkpt lat="46.84413" lon="5.93803">
        <ele>614</ele>
        <time>2011-02-15T15:37:44Z</time>
      </trkpt>
      <trkpt lat="46.84428" lon="5.93788">
        <ele>613</ele>
        <time>2011-02-15T15:37:59Z</time>
      </trkpt>
      <trkpt lat="46.84445" lon="5.93779">
        <ele>612</ele>
        <time>2011-02-15T15:38:12Z</time>
      </trkpt>
      <trkpt lat="46.84462" lon="5.93769">
        <ele>610</ele>
        <time>2011-02-15T15:38:24Z</time>
      </trkpt>
      <trkpt lat="46.84481" lon="5.93762">
        <ele>608</ele>
        <time>2011-02-15T15:38:46Z</time>
      </trkpt>
      <trkpt lat="46.845" lon="5.93755">
        <ele>607</ele>
        <time>2011-02-15T15:38:57Z</time>
      </trkpt>
      <trkpt lat="46.84509" lon="5.93732">
        <ele>606</ele>
        <time>2011-02-15T15:39:22Z</time>
      </trkpt>
      <trkpt lat="46.84501" lon="5.93707">
        <ele>605</ele>
        <time>2011-02-15T15:39:33Z</time>
      </trkpt>
      <trkpt lat="46.84498" lon="5.93676">
        <ele>604</ele>
        <time>2011-02-15T15:39:54Z</time>
      </trkpt>
      <trkpt lat="46.84505" lon="5.93651">
        <ele>603</ele>
        <time>2011-02-15T15:40:07Z</time>
      </trkpt>
      <trkpt lat="46.845" lon="5.93625">
        <ele>603</ele>
        <time>2011-02-15T15:40:20Z</time>
      </trkpt>
      <trkpt lat="46.84504" lon="5.93599">
        <ele>604</ele>
        <time>2011-02-15T15:40:37Z</time>
      </trkpt>
      <trkpt lat="46.8451" lon="5.93571">
        <ele>603</ele>
        <time>2011-02-15T15:41:00Z</time>
      </trkpt>
      <trkpt lat="46.84522" lon="5.93548">
        <ele>604</ele>
        <time>2011-02-15T15:41:13Z</time>
      </trkpt>
      <trkpt lat="46.84526" lon="5.93521">
        <ele>603</ele>
        <time>2011-02-15T15:41:30Z</time>
      </trkpt>
      <trkpt lat="46.84532" lon="5.93495">
        <ele>603</ele>
        <time>2011-02-15T15:41:45Z</time>
      </trkpt>
      <trkpt lat="46.84538" lon="5.93469">
        <ele>602</ele>
        <time>2011-02-15T15:42:00Z</time>
      </trkpt>
      <trkpt lat="46.84547" lon="5.9344">
        <ele>603</ele>
        <time>2011-02-15T15:42:17Z</time>
      </trkpt>
      <trkpt lat="46.84554" lon="5.93414">
        <ele>604</ele>
        <time>2011-02-15T15:42:32Z</time>
      </trkpt>
      <trkpt lat="46.8456" lon="5.93388">
        <ele>605</ele>
        <time>2011-02-15T15:42:49Z</time>
      </trkpt>
      <trkpt lat="46.8457" lon="5.93367">
        <ele>605</ele>
        <time>2011-02-15T15:43:06Z</time>
      </trkpt>
      <trkpt lat="46.84578" lon="5.93341">
        <ele>604</ele>
        <time>2011-02-15T15:43:18Z</time>
      </trkpt>
      <trkpt lat="46.84576" lon="5.93312">
        <ele>603</ele>
        <time>2011-02-15T15:43:37Z</time>
      </trkpt>
      <trkpt lat="46.84585" lon="5.93286">
        <ele>602</ele>
        <time>2011-02-15T15:43:50Z</time>
      </trkpt>
      <trkpt lat="46.84587" lon="5.9326">
        <ele>600</ele>
        <time>2011-02-15T15:44:06Z</time>
      </trkpt>
      <trkpt lat="46.84593" lon="5.93233">
        <ele>600</ele>
        <time>2011-02-15T15:44:24Z</time>
      </trkpt>
      <trkpt lat="46.84604" lon="5.93211">
        <ele>600</ele>
        <time>2011-02-15T15:44:37Z</time>
      </trkpt>
      <trkpt lat="46.84613" lon="5.93187">
        <ele>602</ele>
        <time>2011-02-15T15:44:53Z</time>
      </trkpt>
      <trkpt lat="46.84619" lon="5.93162">
        <ele>602</ele>
        <time>2011-02-15T15:45:10Z</time>
      </trkpt>
      <trkpt lat="46.84638" lon="5.93159">
        <ele>602</ele>
        <time>2011-02-15T15:45:28Z</time>
      </trkpt>
      <trkpt lat="46.84657" lon="5.93154">
        <ele>601</ele>
        <time>2011-02-15T15:45:41Z</time>
      </trkpt>
      <trkpt lat="46.84673" lon="5.93142">
        <ele>601</ele>
        <time>2011-02-15T15:45:53Z</time>
      </trkpt>
      <trkpt lat="46.84687" lon="5.93124">
        <ele>601</ele>
        <time>2011-02-15T15:46:07Z</time>
      </trkpt>
      <trkpt lat="46.84705" lon="5.93124">
        <ele>599</ele>
        <time>2011-02-15T15:46:44Z</time>
      </trkpt>
      <trkpt lat="46.84724" lon="5.9313">
        <ele>597</ele>
        <time>2011-02-15T15:46:57Z</time>
      </trkpt>
      <trkpt lat="46.84741" lon="5.93142">
        <ele>596</ele>
        <time>2011-02-15T15:47:10Z</time>
      </trkpt>
      <trkpt lat="46.8476" lon="5.93143">
        <ele>598</ele>
        <time>2011-02-15T15:47:21Z</time>
      </trkpt>
      <trkpt lat="46.84778" lon="5.93146">
        <ele>600</ele>
        <time>2011-02-15T15:47:34Z</time>
      </trkpt>
      <trkpt lat="46.84797" lon="5.93143">
        <ele>601</ele>
        <time>2011-02-15T15:47:50Z</time>
      </trkpt>
      <trkpt lat="46.84811" lon="5.93125">
        <ele>601</ele>
        <time>2011-02-15T15:48:04Z</time>
      </trkpt>
      <trkpt lat="46.84822" lon="5.93102">
        <ele>602</ele>
        <time>2011-02-15T15:48:16Z</time>
      </trkpt>
      <trkpt lat="46.84832" lon="5.9308">
        <ele>602</ele>
        <time>2011-02-15T15:48:28Z</time>
      </trkpt>
      <trkpt lat="46.84842" lon="5.93055">
        <ele>603</ele>
        <time>2011-02-15T15:48:42Z</time>
      </trkpt>
      <trkpt lat="46.84845" lon="5.93025">
        <ele>605</ele>
        <time>2011-02-15T15:49:00Z</time>
      </trkpt>
      <trkpt lat="46.8483" lon="5.93003">
        <ele>604</ele>
        <time>2011-02-15T15:49:13Z</time>
      </trkpt>
      <trkpt lat="46.84815" lon="5.92985">
        <ele>603</ele>
        <time>2011-02-15T15:49:28Z</time>
      </trkpt>
      <trkpt lat="46.84802" lon="5.92968">
        <ele>602</ele>
        <time>2011-02-15T15:49:43Z</time>
      </trkpt>
      <trkpt lat="46.84786" lon="5.92953">
        <ele>601</ele>
        <time>2011-02-15T15:49:56Z</time>
      </trkpt>
      <trkpt lat="46.84771" lon="5.92938">
        <ele>602</ele>
        <time>2011-02-15T15:50:08Z</time>
      </trkpt>
      <trkpt lat="46.84763" lon="5.92915">
        <ele>601</ele>
        <time>2011-02-15T15:50:21Z</time>
      </trkpt>
      <trkpt lat="46.84755" lon="5.92891">
        <ele>600</ele>
        <time>2011-02-15T15:50:38Z</time>
      </trkpt>
      <trkpt lat="46.84753" lon="5.92864">
        <ele>599</ele>
        <time>2011-02-15T15:50:53Z</time>
      </trkpt>
      <trkpt lat="46.84757" lon="5.92832">
        <ele>598</ele>
        <time>2011-02-15T15:51:10Z</time>
      </trkpt>
      <trkpt lat="46.84765" lon="5.92805">
        <ele>599</ele>
        <time>2011-02-15T15:51:24Z</time>
      </trkpt>
      <trkpt lat="46.8477" lon="5.92778">
        <ele>601</ele>
        <time>2011-02-15T15:51:36Z</time>
      </trkpt>
      <trkpt lat="46.84781" lon="5.92755">
        <ele>605</ele>
        <time>2011-02-15T15:51:55Z</time>
      </trkpt>
    </trkseg>
  </trk>
</gpx>